sensor_id;sensor_type;location;lat;lon;timestamp;P1;durP1;ratioP1;P2;durP2;ratioP2
5285;SDS011;2665;53.112;7.358;2023-02-28T00:00:35;2.70;;;1.90;;
5285;SDS011;2665;53.112;7.358;2023-02-28T00:03:02;2.87;;;2.00;;
5285;SDS011;2665;53.112;7.358;2023-02-28T00:05:28;5.77;;;1.87;;
5285;SDS011;2665;53.112;7.358;2023-02-28T00:07:54;4.80;;;1.87;;
5285;SDS011;2665;53.112;7.358;2023-02-28T00:10:25;4.43;;;1.90;;
5285;SDS011;2665;53.112;7.358;2023-02-28T00:12:52;3.17;;;2.17;;
5285;SDS011;2665;53.112;7.358;2023-02-28T00:15:19;4.37;;;2.23;;
5285;SDS011;2665;53.112;7.358;2023-02-28T00:17:46;3.67;;;1.90;;
5285;SDS011;2665;53.112;7.358;2023-02-28T00:20:12;3.40;;;1.80;;
5285;SDS011;2665;53.112;7.358;2023-02-28T00:22:39;4.70;;;2.00;;
5285;SDS011;2665;53.112;7.358;2023-02-28T00:25:06;3.00;;;1.70;;
5285;SDS011;2665;53.112;7.358;2023-02-28T00:27:33;7.60;;;1.97;;
5285;SDS011;2665;53.112;7.358;2023-02-28T00:30:00;5.80;;;2.23;;
5285;SDS011;2665;53.112;7.358;2023-02-28T00:32:26;4.97;;;1.70;;
5285;SDS011;2665;53.112;7.358;2023-02-28T00:34:52;3.83;;;2.30;;
5285;SDS011;2665;53.112;7.358;2023-02-28T00:37:18;5.10;;;2.37;;
5285;SDS011;2665;53.112;7.358;2023-02-28T00:39:44;3.23;;;2.20;;
5285;SDS011;2665;53.112;7.358;2023-02-28T00:42:10;4.50;;;1.70;;
5285;SDS011;2665;53.112;7.358;2023-02-28T00:44:36;5.80;;;2.20;;
5285;SDS011;2665;53.112;7.358;2023-02-28T00:47:02;6.00;;;2.60;;
5285;SDS011;2665;53.112;7.358;2023-02-28T00:49:28;3.23;;;1.67;;
5285;SDS011;2665;53.112;7.358;2023-02-28T00:51:55;5.87;;;1.70;;
5285;SDS011;2665;53.112;7.358;2023-02-28T00:54:21;3.43;;;2.00;;
5285;SDS011;2665;53.112;7.358;2023-02-28T00:56:48;3.20;;;1.50;;
5285;SDS011;2665;53.112;7.358;2023-02-28T00:59:14;2.50;;;1.37;;
5285;SDS011;2665;53.112;7.358;2023-02-28T01:01:41;3.00;;;1.43;;
5285;SDS011;2665;53.112;7.358;2023-02-28T01:04:07;2.10;;;1.10;;
5285;SDS011;2665;53.112;7.358;2023-02-28T01:06:33;3.10;;;1.50;;
5285;SDS011;2665;53.112;7.358;2023-02-28T01:08:59;2.73;;;1.47;;
5285;SDS011;2665;53.112;7.358;2023-02-28T01:11:25;2.13;;;1.20;;
5285;SDS011;2665;53.112;7.358;2023-02-28T01:13:51;2.50;;;1.20;;
5285;SDS011;2665;53.112;7.358;2023-02-28T01:16:17;2.67;;;1.57;;
5285;SDS011;2665;53.112;7.358;2023-02-28T01:18:44;3.80;;;1.60;;
5285;SDS011;2665;53.112;7.358;2023-02-28T01:21:11;5.00;;;1.33;;
5285;SDS011;2665;53.112;7.358;2023-02-28T01:23:37;2.47;;;1.13;;
5285;SDS011;2665;53.112;7.358;2023-02-28T01:26:10;6.10;;;1.47;;
5285;SDS011;2665;53.112;7.358;2023-02-28T01:28:36;2.67;;;1.47;;
5285;SDS011;2665;53.112;7.358;2023-02-28T01:31:02;2.10;;;1.17;;
5285;SDS011;2665;53.112;7.358;2023-02-28T01:33:28;3.20;;;1.40;;
5285;SDS011;2665;53.112;7.358;2023-02-28T01:35:58;2.50;;;1.30;;
5285;SDS011;2665;53.112;7.358;2023-02-28T01:38:24;3.60;;;1.70;;
5285;SDS011;2665;53.112;7.358;2023-02-28T01:40:50;2.27;;;1.10;;
5285;SDS011;2665;53.112;7.358;2023-02-28T01:43:22;2.60;;;1.23;;
5285;SDS011;2665;53.112;7.358;2023-02-28T01:45:48;3.30;;;1.40;;
5285;SDS011;2665;53.112;7.358;2023-02-28T01:48:14;4.13;;;1.17;;
5285;SDS011;2665;53.112;7.358;2023-02-28T01:50:42;2.50;;;1.30;;
5285;SDS011;2665;53.112;7.358;2023-02-28T01:53:10;3.03;;;1.87;;
5285;SDS011;2665;53.112;7.358;2023-02-28T01:55:38;3.27;;;1.87;;
5285;SDS011;2665;53.112;7.358;2023-02-28T01:58:05;2.13;;;1.30;;
5285;SDS011;2665;53.112;7.358;2023-02-28T02:00:33;2.30;;;1.30;;
5285;SDS011;2665;53.112;7.358;2023-02-28T02:03:01;3.00;;;1.10;;
5285;SDS011;2665;53.112;7.358;2023-02-28T02:05:30;3.53;;;2.00;;
5285;SDS011;2665;53.112;7.358;2023-02-28T02:07:57;4.37;;;1.77;;
5285;SDS011;2665;53.112;7.358;2023-02-28T02:10:29;3.30;;;1.50;;
5285;SDS011;2665;53.112;7.358;2023-02-28T02:18:19;2.90;;;1.33;;
5285;SDS011;2665;53.112;7.358;2023-02-28T02:23:52;4.80;;;1.57;;
5285;SDS011;2665;53.112;7.358;2023-02-28T02:34:24;2.43;;;1.17;;
5285;SDS011;2665;53.112;7.358;2023-02-28T02:39:48;7.50;;;2.00;;
5285;SDS011;2665;53.112;7.358;2023-02-28T02:42:23;2.73;;;1.37;;
5285;SDS011;2665;53.112;7.358;2023-02-28T02:44:55;2.93;;;1.57;;
5285;SDS011;2665;53.112;7.358;2023-02-28T02:47:21;4.23;;;1.40;;
5285;SDS011;2665;53.112;7.358;2023-02-28T02:49:51;4.43;;;1.60;;
5285;SDS011;2665;53.112;7.358;2023-02-28T02:52:18;3.43;;;1.70;;
5285;SDS011;2665;53.112;7.358;2023-02-28T02:54:46;2.50;;;1.43;;
5285;SDS011;2665;53.112;7.358;2023-02-28T02:57:14;5.63;;;2.30;;
5285;SDS011;2665;53.112;7.358;2023-02-28T02:59:41;2.30;;;1.30;;
5285;SDS011;2665;53.112;7.358;2023-02-28T03:02:09;2.60;;;1.33;;
5285;SDS011;2665;53.112;7.358;2023-02-28T03:04:38;4.00;;;2.00;;
5285;SDS011;2665;53.112;7.358;2023-02-28T03:07:06;3.73;;;1.33;;
5285;SDS011;2665;53.112;7.358;2023-02-28T03:09:33;3.00;;;1.67;;
5285;SDS011;2665;53.112;7.358;2023-02-28T03:12:00;3.47;;;1.60;;
5285;SDS011;2665;53.112;7.358;2023-02-28T03:22:14;3.60;;;2.00;;
5285;SDS011;2665;53.112;7.358;2023-02-28T03:27:17;3.97;;;2.03;;
5285;SDS011;2665;53.112;7.358;2023-02-28T03:29:47;5.60;;;1.47;;
5285;SDS011;2665;53.112;7.358;2023-02-28T03:32:17;2.40;;;1.33;;
5285;SDS011;2665;53.112;7.358;2023-02-28T03:34:48;4.27;;;1.97;;
5285;SDS011;2665;53.112;7.358;2023-02-28T03:37:18;7.93;;;2.17;;
5285;SDS011;2665;53.112;7.358;2023-02-28T03:39:46;7.47;;;1.97;;
5285;SDS011;2665;53.112;7.358;2023-02-28T03:42:14;2.63;;;1.57;;
5285;SDS011;2665;53.112;7.358;2023-02-28T03:44:42;9.97;;;1.63;;
5285;SDS011;2665;53.112;7.358;2023-02-28T03:47:11;3.43;;;2.40;;
5285;SDS011;2665;53.112;7.358;2023-02-28T03:52:13;3.70;;;1.97;;
5285;SDS011;2665;53.112;7.358;2023-02-28T03:54:41;2.53;;;1.33;;
5285;SDS011;2665;53.112;7.358;2023-02-28T03:57:17;2.43;;;1.40;;
5285;SDS011;2665;53.112;7.358;2023-02-28T03:59:47;3.60;;;2.13;;
5285;SDS011;2665;53.112;7.358;2023-02-28T04:02:14;9.03;;;2.00;;
5285;SDS011;2665;53.112;7.358;2023-02-28T04:04:40;6.63;;;1.90;;
5285;SDS011;2665;53.112;7.358;2023-02-28T04:07:13;2.80;;;1.50;;
5285;SDS011;2665;53.112;7.358;2023-02-28T04:09:40;3.50;;;1.80;;
5285;SDS011;2665;53.112;7.358;2023-02-28T04:12:06;4.67;;;2.47;;
5285;SDS011;2665;53.112;7.358;2023-02-28T04:14:32;3.57;;;2.20;;
5285;SDS011;2665;53.112;7.358;2023-02-28T04:16:58;5.30;;;2.00;;
5285;SDS011;2665;53.112;7.358;2023-02-28T04:19:24;2.80;;;1.50;;
5285;SDS011;2665;53.112;7.358;2023-02-28T04:21:51;4.07;;;2.17;;
5285;SDS011;2665;53.112;7.358;2023-02-28T04:24:20;5.20;;;1.80;;
5285;SDS011;2665;53.112;7.358;2023-02-28T04:26:47;2.67;;;1.60;;
5285;SDS011;2665;53.112;7.358;2023-02-28T04:29:17;2.83;;;2.03;;
5285;SDS011;2665;53.112;7.358;2023-02-28T04:31:44;3.83;;;1.57;;
5285;SDS011;2665;53.112;7.358;2023-02-28T04:34:10;3.77;;;2.53;;
5285;SDS011;2665;53.112;7.358;2023-02-28T04:36:36;2.63;;;1.47;;
5285;SDS011;2665;53.112;7.358;2023-02-28T04:39:02;6.80;;;2.50;;
5285;SDS011;2665;53.112;7.358;2023-02-28T04:41:29;3.20;;;1.97;;
5285;SDS011;2665;53.112;7.358;2023-02-28T04:43:55;4.30;;;2.30;;
5285;SDS011;2665;53.112;7.358;2023-02-28T04:46:21;5.40;;;2.00;;
5285;SDS011;2665;53.112;7.358;2023-02-28T04:48:47;4.20;;;1.80;;
5285;SDS011;2665;53.112;7.358;2023-02-28T04:51:14;3.30;;;1.37;;
5285;SDS011;2665;53.112;7.358;2023-02-28T04:53:41;4.47;;;2.13;;
5285;SDS011;2665;53.112;7.358;2023-02-28T04:56:07;3.80;;;1.93;;
5285;SDS011;2665;53.112;7.358;2023-02-28T04:58:34;3.57;;;1.93;;
5285;SDS011;2665;53.112;7.358;2023-02-28T05:01:04;3.50;;;2.10;;
5285;SDS011;2665;53.112;7.358;2023-02-28T05:03:38;3.30;;;1.90;;
5285;SDS011;2665;53.112;7.358;2023-02-28T05:06:06;3.50;;;1.63;;
5285;SDS011;2665;53.112;7.358;2023-02-28T05:08:32;5.97;;;2.20;;
5285;SDS011;2665;53.112;7.358;2023-02-28T05:10:58;3.00;;;2.00;;
5285;SDS011;2665;53.112;7.358;2023-02-28T05:13:25;2.87;;;2.10;;
5285;SDS011;2665;53.112;7.358;2023-02-28T05:15:51;4.30;;;2.50;;
5285;SDS011;2665;53.112;7.358;2023-02-28T05:18:17;4.63;;;1.50;;
5285;SDS011;2665;53.112;7.358;2023-02-28T05:20:44;4.10;;;2.20;;
5285;SDS011;2665;53.112;7.358;2023-02-28T05:23:11;5.20;;;3.33;;
5285;SDS011;2665;53.112;7.358;2023-02-28T05:25:37;3.80;;;2.10;;
5285;SDS011;2665;53.112;7.358;2023-02-28T05:28:04;3.97;;;1.70;;
5285;SDS011;2665;53.112;7.358;2023-02-28T05:30:30;5.93;;;2.17;;
5285;SDS011;2665;53.112;7.358;2023-02-28T05:32:57;4.43;;;2.70;;
5285;SDS011;2665;53.112;7.358;2023-02-28T05:35:23;5.33;;;2.17;;
5285;SDS011;2665;53.112;7.358;2023-02-28T05:37:50;4.20;;;2.60;;
5285;SDS011;2665;53.112;7.358;2023-02-28T05:40:16;6.80;;;3.10;;
5285;SDS011;2665;53.112;7.358;2023-02-28T05:42:42;3.10;;;1.80;;
5285;SDS011;2665;53.112;7.358;2023-02-28T05:45:09;4.00;;;2.43;;
5285;SDS011;2665;53.112;7.358;2023-02-28T05:47:35;3.20;;;1.87;;
5285;SDS011;2665;53.112;7.358;2023-02-28T05:50:01;3.40;;;1.50;;
5285;SDS011;2665;53.112;7.358;2023-02-28T05:52:28;3.00;;;1.67;;
5285;SDS011;2665;53.112;7.358;2023-02-28T05:54:55;5.93;;;2.37;;
5285;SDS011;2665;53.112;7.358;2023-02-28T05:57:21;6.00;;;2.83;;
5285;SDS011;2665;53.112;7.358;2023-02-28T05:59:47;3.60;;;2.13;;
5285;SDS011;2665;53.112;7.358;2023-02-28T06:02:15;4.50;;;1.77;;
5285;SDS011;2665;53.112;7.358;2023-02-28T06:04:42;3.73;;;2.20;;
5285;SDS011;2665;53.112;7.358;2023-02-28T06:07:08;3.43;;;1.90;;
5285;SDS011;2665;53.112;7.358;2023-02-28T06:09:35;8.40;;;2.50;;
5285;SDS011;2665;53.112;7.358;2023-02-28T06:12:01;3.10;;;1.90;;
5285;SDS011;2665;53.112;7.358;2023-02-28T06:14:28;2.70;;;1.73;;
5285;SDS011;2665;53.112;7.358;2023-02-28T06:16:56;9.13;;;2.73;;
5285;SDS011;2665;53.112;7.358;2023-02-28T06:19:22;2.93;;;1.83;;
5285;SDS011;2665;53.112;7.358;2023-02-28T06:21:50;4.83;;;3.30;;
5285;SDS011;2665;53.112;7.358;2023-02-28T06:24:17;6.17;;;2.77;;
5285;SDS011;2665;53.112;7.358;2023-02-28T06:26:44;8.33;;;2.90;;
5285;SDS011;2665;53.112;7.358;2023-02-28T06:29:10;4.80;;;2.70;;
5285;SDS011;2665;53.112;7.358;2023-02-28T06:31:36;5.00;;;2.60;;
5285;SDS011;2665;53.112;7.358;2023-02-28T06:34:03;5.60;;;2.80;;
5285;SDS011;2665;53.112;7.358;2023-02-28T06:36:29;3.53;;;2.40;;
5285;SDS011;2665;53.112;7.358;2023-02-28T06:38:55;8.03;;;2.63;;
5285;SDS011;2665;53.112;7.358;2023-02-28T06:41:22;4.73;;;2.10;;
5285;SDS011;2665;53.112;7.358;2023-02-28T06:43:48;5.17;;;2.87;;
5285;SDS011;2665;53.112;7.358;2023-02-28T06:46:15;4.17;;;2.80;;
5285;SDS011;2665;53.112;7.358;2023-02-28T06:48:42;4.03;;;2.73;;
5285;SDS011;2665;53.112;7.358;2023-02-28T06:51:10;3.30;;;2.20;;
5285;SDS011;2665;53.112;7.358;2023-02-28T06:53:36;6.53;;;3.40;;
5285;SDS011;2665;53.112;7.358;2023-02-28T06:56:04;17.50;;;5.93;;
5285;SDS011;2665;53.112;7.358;2023-02-28T06:58:31;16.53;;;6.17;;
5285;SDS011;2665;53.112;7.358;2023-02-28T07:00:57;9.07;;;4.50;;
5285;SDS011;2665;53.112;7.358;2023-02-28T07:03:23;5.37;;;3.53;;
5285;SDS011;2665;53.112;7.358;2023-02-28T07:05:49;4.80;;;3.20;;
5285;SDS011;2665;53.112;7.358;2023-02-28T07:08:16;5.93;;;3.33;;
5285;SDS011;2665;53.112;7.358;2023-02-28T07:10:42;5.40;;;3.07;;
5285;SDS011;2665;53.112;7.358;2023-02-28T07:13:09;5.37;;;3.27;;
5285;SDS011;2665;53.112;7.358;2023-02-28T07:15:35;3.50;;;2.77;;
5285;SDS011;2665;53.112;7.358;2023-02-28T07:18:01;5.60;;;3.50;;
5285;SDS011;2665;53.112;7.358;2023-02-28T07:20:28;3.70;;;2.73;;
5285;SDS011;2665;53.112;7.358;2023-02-28T07:22:54;4.07;;;2.20;;
5285;SDS011;2665;53.112;7.358;2023-02-28T07:25:27;5.13;;;3.33;;
5285;SDS011;2665;53.112;7.358;2023-02-28T07:27:54;9.80;;;2.83;;
5285;SDS011;2665;53.112;7.358;2023-02-28T07:30:20;3.77;;;2.70;;
5285;SDS011;2665;53.112;7.358;2023-02-28T07:32:46;5.93;;;3.73;;
5285;SDS011;2665;53.112;7.358;2023-02-28T07:35:12;4.00;;;2.80;;
5285;SDS011;2665;53.112;7.358;2023-02-28T07:37:40;4.90;;;3.17;;
5285;SDS011;2665;53.112;7.358;2023-02-28T07:40:07;5.90;;;3.23;;
5285;SDS011;2665;53.112;7.358;2023-02-28T07:42:34;4.17;;;2.50;;
5285;SDS011;2665;53.112;7.358;2023-02-28T07:45:00;7.20;;;3.43;;
5285;SDS011;2665;53.112;7.358;2023-02-28T07:47:26;5.57;;;3.27;;
5285;SDS011;2665;53.112;7.358;2023-02-28T07:49:52;7.07;;;3.80;;
5285;SDS011;2665;53.112;7.358;2023-02-28T07:52:18;7.40;;;3.50;;
5285;SDS011;2665;53.112;7.358;2023-02-28T07:54:44;4.60;;;2.43;;
5285;SDS011;2665;53.112;7.358;2023-02-28T07:57:10;5.13;;;2.67;;
5285;SDS011;2665;53.112;7.358;2023-02-28T07:59:36;4.40;;;3.50;;
5285;SDS011;2665;53.112;7.358;2023-02-28T08:02:02;4.03;;;2.90;;
5285;SDS011;2665;53.112;7.358;2023-02-28T08:04:31;5.77;;;4.07;;
5285;SDS011;2665;53.112;7.358;2023-02-28T08:06:57;7.33;;;3.90;;
5285;SDS011;2665;53.112;7.358;2023-02-28T08:09:23;8.10;;;5.00;;
5285;SDS011;2665;53.112;7.358;2023-02-28T08:11:49;5.27;;;3.50;;
5285;SDS011;2665;53.112;7.358;2023-02-28T08:14:15;6.97;;;4.17;;
5285;SDS011;2665;53.112;7.358;2023-02-28T08:16:42;4.60;;;3.10;;
5285;SDS011;2665;53.112;7.358;2023-02-28T08:19:08;5.03;;;3.67;;
5285;SDS011;2665;53.112;7.358;2023-02-28T08:21:34;7.43;;;3.70;;
5285;SDS011;2665;53.112;7.358;2023-02-28T08:24:00;7.90;;;3.90;;
5285;SDS011;2665;53.112;7.358;2023-02-28T08:26:27;11.80;;;4.23;;
5285;SDS011;2665;53.112;7.358;2023-02-28T08:28:53;5.60;;;3.47;;
5285;SDS011;2665;53.112;7.358;2023-02-28T08:31:19;7.10;;;3.83;;
5285;SDS011;2665;53.112;7.358;2023-02-28T08:33:45;7.83;;;4.33;;
5285;SDS011;2665;53.112;7.358;2023-02-28T08:36:13;10.30;;;4.37;;
5285;SDS011;2665;53.112;7.358;2023-02-28T08:38:40;9.83;;;4.40;;
5285;SDS011;2665;53.112;7.358;2023-02-28T08:41:07;6.87;;;3.53;;
5285;SDS011;2665;53.112;7.358;2023-02-28T08:43:34;10.10;;;5.27;;
5285;SDS011;2665;53.112;7.358;2023-02-28T08:46:00;7.87;;;4.53;;
5285;SDS011;2665;53.112;7.358;2023-02-28T08:48:27;6.07;;;4.00;;
5285;SDS011;2665;53.112;7.358;2023-02-28T08:51:04;10.43;;;5.40;;
5285;SDS011;2665;53.112;7.358;2023-02-28T08:53:31;6.63;;;4.87;;
5285;SDS011;2665;53.112;7.358;2023-02-28T08:56:01;5.90;;;4.90;;
5285;SDS011;2665;53.112;7.358;2023-02-28T08:58:28;9.57;;;4.90;;
5285;SDS011;2665;53.112;7.358;2023-02-28T09:00:54;10.17;;;5.13;;
5285;SDS011;2665;53.112;7.358;2023-02-28T09:03:21;7.90;;;4.90;;
5285;SDS011;2665;53.112;7.358;2023-02-28T09:05:54;9.53;;;5.23;;
5285;SDS011;2665;53.112;7.358;2023-02-28T09:08:21;10.40;;;5.00;;
5285;SDS011;2665;53.112;7.358;2023-02-28T09:10:48;6.63;;;4.57;;
5285;SDS011;2665;53.112;7.358;2023-02-28T09:13:14;8.27;;;4.73;;
5285;SDS011;2665;53.112;7.358;2023-02-28T09:15:40;6.90;;;4.27;;
5285;SDS011;2665;53.112;7.358;2023-02-28T09:18:06;6.10;;;4.27;;
5285;SDS011;2665;53.112;7.358;2023-02-28T09:20:32;9.10;;;5.00;;
5285;SDS011;2665;53.112;7.358;2023-02-28T09:22:59;8.00;;;4.43;;
5285;SDS011;2665;53.112;7.358;2023-02-28T09:25:25;13.33;;;5.97;;
5285;SDS011;2665;53.112;7.358;2023-02-28T09:27:51;11.50;;;5.40;;
5285;SDS011;2665;53.112;7.358;2023-02-28T09:30:17;15.13;;;7.00;;
5285;SDS011;2665;53.112;7.358;2023-02-28T09:32:43;9.53;;;6.63;;
5285;SDS011;2665;53.112;7.358;2023-02-28T09:35:19;11.73;;;7.40;;
5285;SDS011;2665;53.112;7.358;2023-02-28T09:37:46;13.70;;;7.07;;
5285;SDS011;2665;53.112;7.358;2023-02-28T09:40:12;16.20;;;8.47;;
5285;SDS011;2665;53.112;7.358;2023-02-28T09:42:39;10.70;;;7.37;;
5285;SDS011;2665;53.112;7.358;2023-02-28T09:45:21;7.23;;;6.10;;
5285;SDS011;2665;53.112;7.358;2023-02-28T09:47:50;11.73;;;5.80;;
5285;SDS011;2665;53.112;7.358;2023-02-28T09:52:58;7.67;;;3.57;;
5285;SDS011;2665;53.112;7.358;2023-02-28T09:55:43;4.97;;;3.83;;
5285;SDS011;2665;53.112;7.358;2023-02-28T09:58:26;6.83;;;3.30;;
5285;SDS011;2665;53.112;7.358;2023-02-28T10:01:43;3.80;;;3.23;;
5285;SDS011;2665;53.112;7.358;2023-02-28T10:04:03;6.20;;;3.80;;
5285;SDS011;2665;53.112;7.358;2023-02-28T10:06:46;5.83;;;3.60;;
5285;SDS011;2665;53.112;7.358;2023-02-28T10:09:22;4.50;;;3.00;;
5285;SDS011;2665;53.112;7.358;2023-02-28T10:11:52;5.63;;;4.47;;
5285;SDS011;2665;53.112;7.358;2023-02-28T10:14:23;4.83;;;3.20;;
5285;SDS011;2665;53.112;7.358;2023-02-28T10:16:52;5.37;;;3.43;;
5285;SDS011;2665;53.112;7.358;2023-02-28T10:19:28;4.90;;;3.10;;
5285;SDS011;2665;53.112;7.358;2023-02-28T10:22:10;5.30;;;2.80;;
5285;SDS011;2665;53.112;7.358;2023-02-28T10:24:40;4.20;;;2.97;;
5285;SDS011;2665;53.112;7.358;2023-02-28T10:29:48;4.93;;;2.77;;
5285;SDS011;2665;53.112;7.358;2023-02-28T10:32:40;5.07;;;3.00;;
5285;SDS011;2665;53.112;7.358;2023-02-28T10:35:16;4.77;;;2.60;;
5285;SDS011;2665;53.112;7.358;2023-02-28T10:37:44;6.53;;;3.27;;
5285;SDS011;2665;53.112;7.358;2023-02-28T10:45:34;4.50;;;3.17;;
5285;SDS011;2665;53.112;7.358;2023-02-28T10:50:37;4.70;;;3.07;;
5285;SDS011;2665;53.112;7.358;2023-02-28T10:53:17;4.57;;;2.40;;
5285;SDS011;2665;53.112;7.358;2023-02-28T11:04:11;5.93;;;3.00;;
5285;SDS011;2665;53.112;7.358;2023-02-28T11:07:17;3.57;;;2.43;;
5285;SDS011;2665;53.112;7.358;2023-02-28T11:09:46;5.07;;;3.10;;
5285;SDS011;2665;53.112;7.358;2023-02-28T11:14:49;5.17;;;2.77;;
5285;SDS011;2665;53.112;7.358;2023-02-28T11:17:22;4.30;;;2.70;;
5285;SDS011;2665;53.112;7.358;2023-02-28T11:19:54;4.17;;;3.00;;
5285;SDS011;2665;53.112;7.358;2023-02-28T11:22:24;4.00;;;2.57;;
5285;SDS011;2665;53.112;7.358;2023-02-28T11:24:54;3.70;;;2.53;;
5285;SDS011;2665;53.112;7.358;2023-02-28T11:29:56;3.73;;;2.80;;
5285;SDS011;2665;53.112;7.358;2023-02-28T11:32:24;4.07;;;2.70;;
5285;SDS011;2665;53.112;7.358;2023-02-28T11:37:34;5.23;;;2.93;;
5285;SDS011;2665;53.112;7.358;2023-02-28T11:40:00;3.23;;;2.10;;
5285;SDS011;2665;53.112;7.358;2023-02-28T11:42:42;4.43;;;2.67;;
5285;SDS011;2665;53.112;7.358;2023-02-28T11:48:37;3.37;;;2.23;;
5285;SDS011;2665;53.112;7.358;2023-02-28T11:51:13;6.57;;;4.20;;
5285;SDS011;2665;53.112;7.358;2023-02-28T11:56:39;4.43;;;2.77;;
5285;SDS011;2665;53.112;7.358;2023-02-28T11:59:55;4.90;;;2.50;;
5285;SDS011;2665;53.112;7.358;2023-02-28T12:05:02;4.67;;;2.10;;
5285;SDS011;2665;53.112;7.358;2023-02-28T12:11:27;4.63;;;2.30;;
5285;SDS011;2665;53.112;7.358;2023-02-28T12:27:31;4.47;;;2.50;;
5285;SDS011;2665;53.112;7.358;2023-02-28T12:30:05;6.97;;;3.30;;
5285;SDS011;2665;53.112;7.358;2023-02-28T12:32:38;6.00;;;2.63;;
5285;SDS011;2665;53.112;7.358;2023-02-28T12:37:39;3.50;;;2.47;;
5285;SDS011;2665;53.112;7.358;2023-02-28T12:40:12;5.27;;;2.77;;
5285;SDS011;2665;53.112;7.358;2023-02-28T12:43:08;3.27;;;2.13;;
5285;SDS011;2665;53.112;7.358;2023-02-28T12:45:47;3.00;;;2.03;;
5285;SDS011;2665;53.112;7.358;2023-02-28T12:48:22;2.50;;;1.90;;
5285;SDS011;2665;53.112;7.358;2023-02-28T12:50:52;4.03;;;2.20;;
5285;SDS011;2665;53.112;7.358;2023-02-28T12:53:37;3.10;;;2.43;;
5285;SDS011;2665;53.112;7.358;2023-02-28T12:56:17;2.77;;;1.97;;
5285;SDS011;2665;53.112;7.358;2023-02-28T12:58:51;4.00;;;2.57;;
5285;SDS011;2665;53.112;7.358;2023-02-28T13:01:32;3.40;;;2.30;;
5285;SDS011;2665;53.112;7.358;2023-02-28T13:04:42;3.67;;;2.17;;
5285;SDS011;2665;53.112;7.358;2023-02-28T13:10:03;2.63;;;1.53;;
5285;SDS011;2665;53.112;7.358;2023-02-28T13:12:32;3.37;;;2.37;;
5285;SDS011;2665;53.112;7.358;2023-02-28T13:15:12;3.43;;;1.70;;
5285;SDS011;2665;53.112;7.358;2023-02-28T13:17:49;2.73;;;1.90;;
5285;SDS011;2665;53.112;7.358;2023-02-28T13:20:18;4.83;;;2.00;;
5285;SDS011;2665;53.112;7.358;2023-02-28T13:22:47;2.97;;;2.40;;
5285;SDS011;2665;53.112;7.358;2023-02-28T13:27:58;7.30;;;1.60;;
5285;SDS011;2665;53.112;7.358;2023-02-28T13:46:29;2.53;;;1.30;;
5285;SDS011;2665;53.112;7.358;2023-02-28T13:48:55;3.70;;;1.47;;
5285;SDS011;2665;53.112;7.358;2023-02-28T13:54:22;2.50;;;1.00;;
5285;SDS011;2665;53.112;7.358;2023-02-28T13:57:01;2.33;;;1.10;;
5285;SDS011;2665;53.112;7.358;2023-02-28T13:59:50;1.80;;;1.17;;
5285;SDS011;2665;53.112;7.358;2023-02-28T14:05:21;2.90;;;1.73;;
5285;SDS011;2665;53.112;7.358;2023-02-28T14:07:52;3.50;;;1.57;;
5285;SDS011;2665;53.112;7.358;2023-02-28T14:10:42;2.40;;;1.43;;
5285;SDS011;2665;53.112;7.358;2023-02-28T14:16:13;2.80;;;1.50;;
5285;SDS011;2665;53.112;7.358;2023-02-28T14:18:41;1.90;;;1.00;;
5285;SDS011;2665;53.112;7.358;2023-02-28T14:21:17;2.73;;;1.30;;
5285;SDS011;2665;53.112;7.358;2023-02-28T14:26:56;2.40;;;1.37;;
5285;SDS011;2665;53.112;7.358;2023-02-28T14:32:32;3.17;;;1.40;;
5285;SDS011;2665;53.112;7.358;2023-02-28T14:35:26;2.13;;;1.07;;
5285;SDS011;2665;53.112;7.358;2023-02-28T14:38:14;2.70;;;1.30;;
5285;SDS011;2665;53.112;7.358;2023-02-28T14:40:46;10.57;;;2.37;;
5285;SDS011;2665;53.112;7.358;2023-02-28T14:43:22;4.93;;;2.27;;
5285;SDS011;2665;53.112;7.358;2023-02-28T14:45:50;1.90;;;1.17;;
5285;SDS011;2665;53.112;7.358;2023-02-28T14:48:19;5.87;;;1.60;;
5285;SDS011;2665;53.112;7.358;2023-02-28T14:50:49;3.47;;;1.73;;
5285;SDS011;2665;53.112;7.358;2023-02-28T14:53:21;4.87;;;3.20;;
5285;SDS011;2665;53.112;7.358;2023-02-28T14:55:48;3.53;;;2.40;;
5285;SDS011;2665;53.112;7.358;2023-02-28T14:58:27;2.40;;;1.53;;
5285;SDS011;2665;53.112;7.358;2023-02-28T15:00:55;2.13;;;1.30;;
5285;SDS011;2665;53.112;7.358;2023-02-28T15:03:36;3.53;;;1.30;;
5285;SDS011;2665;53.112;7.358;2023-02-28T15:06:03;2.30;;;1.40;;
5285;SDS011;2665;53.112;7.358;2023-02-28T15:08:30;2.27;;;1.60;;
5285;SDS011;2665;53.112;7.358;2023-02-28T15:21:12;2.70;;;1.60;;
5285;SDS011;2665;53.112;7.358;2023-02-28T15:23:40;1.93;;;1.27;;
5285;SDS011;2665;53.112;7.358;2023-02-28T15:26:14;2.60;;;1.40;;
5285;SDS011;2665;53.112;7.358;2023-02-28T15:28:42;2.93;;;1.30;;
5285;SDS011;2665;53.112;7.358;2023-02-28T15:33:55;2.00;;;1.70;;
5285;SDS011;2665;53.112;7.358;2023-02-28T15:36:28;2.47;;;1.50;;
5285;SDS011;2665;53.112;7.358;2023-02-28T15:38:56;4.33;;;1.93;;
5285;SDS011;2665;53.112;7.358;2023-02-28T15:41:24;2.23;;;1.40;;
5285;SDS011;2665;53.112;7.358;2023-02-28T15:49:28;2.30;;;1.40;;
5285;SDS011;2665;53.112;7.358;2023-02-28T15:51:57;3.13;;;1.40;;
5285;SDS011;2665;53.112;7.358;2023-02-28T15:54:27;5.23;;;1.63;;
5285;SDS011;2665;53.112;7.358;2023-02-28T15:57:05;2.00;;;1.47;;
5285;SDS011;2665;53.112;7.358;2023-02-28T15:59:33;3.13;;;1.70;;
5285;SDS011;2665;53.112;7.358;2023-02-28T16:04:35;3.43;;;1.60;;
5285;SDS011;2665;53.112;7.358;2023-02-28T16:07:02;3.70;;;1.50;;
5285;SDS011;2665;53.112;7.358;2023-02-28T16:09:37;2.13;;;1.60;;
5285;SDS011;2665;53.112;7.358;2023-02-28T16:12:03;2.47;;;1.50;;
5285;SDS011;2665;53.112;7.358;2023-02-28T16:14:30;4.67;;;1.97;;
5285;SDS011;2665;53.112;7.358;2023-02-28T16:16:57;3.70;;;1.97;;
5285;SDS011;2665;53.112;7.358;2023-02-28T16:19:28;2.43;;;1.70;;
5285;SDS011;2665;53.112;7.358;2023-02-28T16:21:54;2.13;;;1.40;;
5285;SDS011;2665;53.112;7.358;2023-02-28T16:24:20;2.90;;;1.63;;
5285;SDS011;2665;53.112;7.358;2023-02-28T16:26:46;4.47;;;2.00;;
5285;SDS011;2665;53.112;7.358;2023-02-28T16:29:14;2.53;;;1.80;;
5285;SDS011;2665;53.112;7.358;2023-02-28T16:32:04;3.50;;;2.30;;
5285;SDS011;2665;53.112;7.358;2023-02-28T16:34:30;4.00;;;2.70;;
5285;SDS011;2665;53.112;7.358;2023-02-28T16:36:56;5.10;;;2.00;;
5285;SDS011;2665;53.112;7.358;2023-02-28T16:39:23;3.10;;;2.17;;
5285;SDS011;2665;53.112;7.358;2023-02-28T16:41:49;4.07;;;2.43;;
5285;SDS011;2665;53.112;7.358;2023-02-28T16:46:48;8.20;;;4.50;;
5285;SDS011;2665;53.112;7.358;2023-02-28T16:49:14;12.70;;;5.40;;
5285;SDS011;2665;53.112;7.358;2023-02-28T16:51:40;12.73;;;4.53;;
5285;SDS011;2665;53.112;7.358;2023-02-28T16:54:06;4.40;;;2.40;;
5285;SDS011;2665;53.112;7.358;2023-02-28T16:56:32;6.60;;;2.17;;
5285;SDS011;2665;53.112;7.358;2023-02-28T16:58:59;2.60;;;1.70;;
5285;SDS011;2665;53.112;7.358;2023-02-28T17:01:26;4.00;;;2.30;;
5285;SDS011;2665;53.112;7.358;2023-02-28T17:03:53;3.03;;;1.80;;
5285;SDS011;2665;53.112;7.358;2023-02-28T17:06:20;5.37;;;2.30;;
5285;SDS011;2665;53.112;7.358;2023-02-28T17:08:48;3.20;;;2.27;;
5285;SDS011;2665;53.112;7.358;2023-02-28T17:11:15;3.43;;;1.93;;
5285;SDS011;2665;53.112;7.358;2023-02-28T17:13:41;3.20;;;2.00;;
5285;SDS011;2665;53.112;7.358;2023-02-28T17:16:08;2.77;;;1.67;;
5285;SDS011;2665;53.112;7.358;2023-02-28T17:18:50;2.23;;;1.23;;
5285;SDS011;2665;53.112;7.358;2023-02-28T17:21:16;2.63;;;1.57;;
5285;SDS011;2665;53.112;7.358;2023-02-28T17:23:43;6.73;;;2.13;;
5285;SDS011;2665;53.112;7.358;2023-02-28T17:26:12;2.20;;;1.70;;
5285;SDS011;2665;53.112;7.358;2023-02-28T17:28:40;3.13;;;2.33;;
5285;SDS011;2665;53.112;7.358;2023-02-28T17:31:05;3.13;;;1.83;;
5285;SDS011;2665;53.112;7.358;2023-02-28T17:33:32;2.70;;;1.70;;
5285;SDS011;2665;53.112;7.358;2023-02-28T17:35:57;1.93;;;1.20;;
5285;SDS011;2665;53.112;7.358;2023-02-28T17:38:23;2.43;;;1.77;;
5285;SDS011;2665;53.112;7.358;2023-02-28T17:40:49;4.10;;;1.60;;
5285;SDS011;2665;53.112;7.358;2023-02-28T17:43:15;5.37;;;1.57;;
5285;SDS011;2665;53.112;7.358;2023-02-28T17:45:41;2.60;;;1.50;;
5285;SDS011;2665;53.112;7.358;2023-02-28T17:48:09;3.40;;;1.43;;
5285;SDS011;2665;53.112;7.358;2023-02-28T17:50:35;3.40;;;2.10;;
5285;SDS011;2665;53.112;7.358;2023-02-28T17:53:01;3.50;;;1.70;;
5285;SDS011;2665;53.112;7.358;2023-02-28T17:55:27;2.93;;;1.67;;
5285;SDS011;2665;53.112;7.358;2023-02-28T17:57:53;2.93;;;1.47;;